createdAt,value
2022-11-05T00:00:04.958Z,19.97
2022-11-05T00:01:04.972Z,19.97
2022-11-05T00:02:05.045Z,19.95
2022-11-05T00:03:04.998Z,19.97
2022-11-05T00:04:05.057Z,19.97
2022-11-05T00:05:05.002Z,19.94
2022-11-05T00:06:05.039Z,19.94
2022-11-05T00:07:05.067Z,19.94
2022-11-05T00:08:05.042Z,19.94
2022-11-05T00:09:05.059Z,19.97
2022-11-05T00:10:05.101Z,19.94
2022-11-05T00:11:05.102Z,19.94
2022-11-05T00:12:05.103Z,19.94
2022-11-05T00:13:05.110Z,19.94
2022-11-05T00:14:05.133Z,19.94
2022-11-05T00:15:05.134Z,19.94
2022-11-05T00:16:05.129Z,19.92
2022-11-05T00:17:05.151Z,19.92
2022-11-05T00:18:05.118Z,19.92
2022-11-05T00:19:05.127Z,19.90
2022-11-05T00:20:05.147Z,19.90
2022-11-05T00:21:05.151Z,19.90
2022-11-05T00:22:05.160Z,19.90
2022-11-05T00:23:05.180Z,19.90
2022-11-05T00:24:05.182Z,19.89
2022-11-05T00:25:05.197Z,19.89
2022-11-05T00:26:05.302Z,19.89
2022-11-05T00:27:05.163Z,19.89
2022-11-05T00:28:05.187Z,19.90
2022-11-05T00:29:05.206Z,19.89
2022-11-05T00:30:05.229Z,19.89
2022-11-05T00:31:05.223Z,19.92
2022-11-05T00:32:05.239Z,19.94
2022-11-05T00:33:05.237Z,19.92
2022-11-05T00:34:05.240Z,19.92
2022-11-05T00:35:05.258Z,19.90
2022-11-05T00:36:05.269Z,19.90
2022-11-05T00:37:05.281Z,19.89
2022-11-05T00:38:05.311Z,19.89
2022-11-05T00:39:05.323Z,19.89
2022-11-05T00:40:05.320Z,19.89
2022-11-05T00:41:05.341Z,19.89
2022-11-05T00:42:05.393Z,19.89
2022-11-05T00:43:05.400Z,19.87
2022-11-05T00:44:05.381Z,19.89
2022-11-05T00:45:05.388Z,19.89
2022-11-05T00:46:05.425Z,19.90
2022-11-05T00:47:05.433Z,19.86
2022-11-05T00:48:05.464Z,19.86
2022-11-05T00:49:05.446Z,19.85
2022-11-05T00:50:05.455Z,19.85
2022-11-05T00:51:05.461Z,19.86
2022-11-05T00:52:05.463Z,19.85
2022-11-05T00:53:05.477Z,19.85
2022-11-05T00:54:05.499Z,19.85
2022-11-05T00:55:05.509Z,19.85
2022-11-05T00:56:05.516Z,19.87
2022-11-05T00:57:05.530Z,19.87
2022-11-05T00:58:05.572Z,19.87
2022-11-05T00:59:05.573Z,19.87
2022-11-05T01:00:05.606Z,19.87
2022-11-05T01:01:05.610Z,19.87
2022-11-05T01:02:05.823Z,19.90
2022-11-05T01:03:05.647Z,19.89
2022-11-05T01:04:05.670Z,19.87
2022-11-05T01:05:05.678Z,19.87
2022-11-05T01:06:05.694Z,19.87
2022-11-05T01:07:05.706Z,19.87
2022-11-05T01:08:05.745Z,19.87
2022-11-05T01:09:05.773Z,19.86
2022-11-05T01:10:05.753Z,19.87
2022-11-05T01:11:05.771Z,19.87
2022-11-05T01:12:05.802Z,19.86
2022-11-05T01:13:10.192Z,19.86
2022-11-05T01:14:05.852Z,19.85
2022-11-05T01:15:05.821Z,19.85
2022-11-05T01:16:05.849Z,19.85
2022-11-05T01:17:05.859Z,19.85
2022-11-05T01:18:05.877Z,19.83
2022-11-05T01:19:05.891Z,19.85
2022-11-05T01:20:05.914Z,19.82
2022-11-05T01:21:05.933Z,19.85
2022-11-05T01:22:05.948Z,19.85
2022-11-05T01:23:11.956Z,19.85
2022-11-05T01:24:05.985Z,19.85
2022-11-05T01:25:05.956Z,19.83
2022-11-05T01:26:05.978Z,19.83
2022-11-05T01:27:06.002Z,19.83
2022-11-05T01:28:06.015Z,19.83
2022-11-05T01:29:06.112Z,19.83
2022-11-05T01:30:06.105Z,19.83
2022-11-05T01:31:06.104Z,19.85
2022-11-05T01:32:06.096Z,19.85
2022-11-05T01:33:06.091Z,19.82
2022-11-05T01:34:06.101Z,19.83
2022-11-05T01:35:06.134Z,19.85
2022-11-05T01:36:06.143Z,19.82
2022-11-05T01:37:06.157Z,19.83
2022-11-05T01:38:06.182Z,19.82
2022-11-05T01:39:06.205Z,19.85
2022-11-05T01:40:06.179Z,19.85
2022-11-05T01:41:06.216Z,19.80
2022-11-05T01:42:06.189Z,19.80
2022-11-05T01:43:06.192Z,19.82
2022-11-05T01:44:06.200Z,19.82
2022-11-05T01:45:06.231Z,19.82
2022-11-05T01:46:06.256Z,19.83
2022-11-05T01:47:06.213Z,19.80
2022-11-05T01:48:06.215Z,19.79
2022-11-05T01:49:06.255Z,19.80
2022-11-05T01:50:06.272Z,19.80
2022-11-05T01:51:06.298Z,19.80
2022-11-05T01:52:06.281Z,19.83
2022-11-05T01:53:06.282Z,19.79
2022-11-05T01:54:06.311Z,19.80
2022-11-05T01:55:06.328Z,19.80
2022-11-05T01:56:06.328Z,19.80
2022-11-05T01:57:06.348Z,19.80
2022-11-05T01:58:06.357Z,19.79
2022-11-05T01:59:06.370Z,19.79
2022-11-05T02:00:06.389Z,19.80
2022-11-05T02:01:06.416Z,19.80
2022-11-05T02:02:06.732Z,19.80
2022-11-05T02:03:06.556Z,19.80
2022-11-05T02:04:06.468Z,19.79
2022-11-05T02:05:06.481Z,19.80
2022-11-05T02:06:06.496Z,19.80
2022-11-05T02:07:06.513Z,19.79
2022-11-05T02:08:06.523Z,19.80
2022-11-05T02:09:06.581Z,19.78
2022-11-05T02:10:06.536Z,19.79
2022-11-05T02:11:06.551Z,19.80
2022-11-05T02:12:06.596Z,19.80
2022-11-05T02:13:06.627Z,19.82
2022-11-05T02:14:06.639Z,19.79
2022-11-05T02:15:06.664Z,19.79
2022-11-05T02:16:06.684Z,19.79
2022-11-05T02:17:06.693Z,19.79
2022-11-05T02:18:06.739Z,19.80
2022-11-05T02:19:06.706Z,19.80
2022-11-05T02:20:06.730Z,19.80
2022-11-05T02:21:06.735Z,19.78
2022-11-05T02:22:06.752Z,19.78
2022-11-05T02:23:06.758Z,19.78
2022-11-05T02:24:06.786Z,19.78
2022-11-05T02:25:06.799Z,19.78
2022-11-05T02:26:06.814Z,19.76
2022-11-05T02:27:06.843Z,19.78
2022-11-05T02:28:06.813Z,19.75
2022-11-05T02:29:06.816Z,19.76
2022-11-05T02:30:06.835Z,19.78
2022-11-05T02:31:06.850Z,19.76
2022-11-05T02:32:06.867Z,19.78
2022-11-05T02:33:06.881Z,19.76
2022-11-05T02:34:06.923Z,19.76
2022-11-05T02:35:06.920Z,19.76
2022-11-05T02:36:06.941Z,19.79
2022-11-05T02:37:06.953Z,19.78
2022-11-05T02:38:06.956Z,19.79
2022-11-05T02:39:06.992Z,19.78
2022-11-05T02:40:06.995Z,19.78
2022-11-05T02:41:07.015Z,19.76
2022-11-05T02:42:07.047Z,19.76
2022-11-05T02:43:07.020Z,19.78
2022-11-05T02:44:07.009Z,19.76
2022-11-05T02:45:07.013Z,19.76
2022-11-05T02:46:07.017Z,19.75
2022-11-05T02:47:07.051Z,19.76
2022-11-05T02:48:07.057Z,19.75
2022-11-05T02:49:07.063Z,19.75
2022-11-05T02:50:07.116Z,19.76
2022-11-05T02:51:07.077Z,19.76
2022-11-05T02:52:07.106Z,19.75
2022-11-05T02:53:07.115Z,19.75
2022-11-05T02:54:07.143Z,19.76
2022-11-05T02:55:07.177Z,19.75
2022-11-05T02:56:07.182Z,19.71
2022-11-05T02:57:07.177Z,19.71
2022-11-05T02:58:07.197Z,19.72
2022-11-05T02:59:07.218Z,19.72
2022-11-05T03:00:07.242Z,19.72
2022-11-05T03:01:07.267Z,19.72
2022-11-05T03:02:07.438Z,19.71
2022-11-05T03:03:07.302Z,19.75
2022-11-05T03:04:07.326Z,19.75
2022-11-05T03:05:07.368Z,19.72
2022-11-05T03:06:07.355Z,19.75
2022-11-05T03:07:07.361Z,19.72
2022-11-05T03:08:07.381Z,19.71
2022-11-05T03:09:07.386Z,19.72
2022-11-05T03:10:07.429Z,19.72
2022-11-05T03:11:07.449Z,19.75
2022-11-05T03:12:07.458Z,19.72
2022-11-05T03:13:07.652Z,19.75
2022-11-05T03:14:07.442Z,19.72
2022-11-05T03:15:07.474Z,19.75
2022-11-05T03:16:07.438Z,19.75
2022-11-05T03:17:07.432Z,19.75
2022-11-05T03:18:07.452Z,19.72
2022-11-05T03:19:07.443Z,19.72
2022-11-05T03:20:07.456Z,19.72
2022-11-05T03:21:07.504Z,19.72
2022-11-05T03:22:07.527Z,19.72
2022-11-05T03:23:07.820Z,19.71
2022-11-05T03:24:07.567Z,19.71
2022-11-05T03:25:07.592Z,19.71
2022-11-05T03:26:07.600Z,19.71
2022-11-05T03:27:07.617Z,19.71
2022-11-05T03:28:07.639Z,19.71
2022-11-05T03:29:07.620Z,19.71
2022-11-05T03:30:07.627Z,19.71
2022-11-05T03:31:07.651Z,19.71
2022-11-05T03:32:07.659Z,19.70
2022-11-05T03:33:07.906Z,19.70
2022-11-05T03:34:07.713Z,19.70
2022-11-05T03:35:07.722Z,19.71
2022-11-05T03:36:07.757Z,19.68
2022-11-05T03:37:07.775Z,19.70
2022-11-05T03:38:07.815Z,19.70
2022-11-05T03:39:07.780Z,19.68
2022-11-05T03:40:07.796Z,19.70
2022-11-05T03:41:07.814Z,19.68
2022-11-05T03:42:07.816Z,19.68
2022-11-05T03:43:08.103Z,19.68
2022-11-05T03:44:07.846Z,19.67
2022-11-05T03:45:07.869Z,19.68
2022-11-05T03:46:07.872Z,19.67
2022-11-05T03:47:07.873Z,19.67
2022-11-05T03:48:07.929Z,19.67
2022-11-05T03:49:07.873Z,19.65
2022-11-05T03:50:07.881Z,19.68
2022-11-05T03:51:07.889Z,19.70
2022-11-05T03:52:07.899Z,19.68
2022-11-05T03:53:08.304Z,19.67
2022-11-05T03:54:07.923Z,19.68
2022-11-05T03:55:07.930Z,19.67
2022-11-05T03:56:07.938Z,19.67
2022-11-05T03:57:07.951Z,19.64
2022-11-05T03:58:07.987Z,19.65
2022-11-05T03:59:07.969Z,19.65
2022-11-05T04:00:07.976Z,19.67
2022-11-05T04:01:08.018Z,19.68
2022-11-05T04:02:08.161Z,19.75
2022-11-05T04:03:08.283Z,19.79
2022-11-05T04:04:08.075Z,19.83
2022-11-05T04:05:08.129Z,19.90
2022-11-05T04:06:08.088Z,19.95
2022-11-05T04:07:08.112Z,20.01
2022-11-05T04:08:13.918Z,20.07
2022-11-05T04:09:08.146Z,20.13
2022-11-05T04:10:08.170Z,20.17
2022-11-05T04:11:08.176Z,20.23
2022-11-05T04:12:08.200Z,20.27
2022-11-05T04:13:08.446Z,20.35
2022-11-05T04:14:08.230Z,20.44
2022-11-05T04:15:08.233Z,20.48
2022-11-05T04:16:08.235Z,20.53
2022-11-05T04:17:08.253Z,20.60
2022-11-05T04:18:08.310Z,20.66
2022-11-05T04:19:08.270Z,20.71
2022-11-05T04:20:08.288Z,20.76
2022-11-05T04:21:08.298Z,20.79
2022-11-05T04:22:08.312Z,20.82
2022-11-05T04:23:08.631Z,20.85
2022-11-05T04:24:08.344Z,20.90
2022-11-05T04:25:08.347Z,20.96
2022-11-05T04:26:08.396Z,21.01
2022-11-05T04:27:08.395Z,21.05
2022-11-05T04:28:08.437Z,21.11
2022-11-05T04:29:08.408Z,21.11
2022-11-05T04:30:08.426Z,21.12
2022-11-05T04:31:08.424Z,21.12
2022-11-05T04:32:08.457Z,21.18
2022-11-05T04:33:08.737Z,21.21
2022-11-05T04:34:08.466Z,21.22
2022-11-05T04:35:08.486Z,21.21
2022-11-05T04:36:08.495Z,21.22
2022-11-05T04:37:08.517Z,21.30
2022-11-05T04:38:08.559Z,21.31
2022-11-05T04:39:08.530Z,21.33
2022-11-05T04:40:08.553Z,21.37
2022-11-05T04:41:08.574Z,21.38
2022-11-05T04:42:08.621Z,21.42
2022-11-05T04:43:14.733Z,21.43
2022-11-05T04:44:08.590Z,21.45
2022-11-05T04:45:08.605Z,21.45
2022-11-05T04:46:08.629Z,21.46
2022-11-05T04:47:08.646Z,21.48
2022-11-05T04:48:08.648Z,21.48
2022-11-05T04:49:08.660Z,21.51
2022-11-05T04:50:08.669Z,21.55
2022-11-05T04:51:08.677Z,21.56
2022-11-05T04:52:08.714Z,21.58
2022-11-05T04:53:09.032Z,21.58
2022-11-05T04:54:08.716Z,21.59
2022-11-05T04:55:08.722Z,21.61
2022-11-05T04:56:08.742Z,21.61
2022-11-05T04:57:08.769Z,21.63
2022-11-05T04:58:08.842Z,21.63
2022-11-05T04:59:08.793Z,21.63
2022-11-05T05:00:08.810Z,21.64
2022-11-05T05:01:08.886Z,21.63
2022-11-05T05:02:08.884Z,21.64
2022-11-05T05:03:09.180Z,21.68
2022-11-05T05:04:08.861Z,21.67
2022-11-05T05:05:08.881Z,21.68
2022-11-05T05:06:08.917Z,21.67
2022-11-05T05:07:08.946Z,21.70
2022-11-05T05:08:08.955Z,21.71
2022-11-05T05:09:08.957Z,21.71
2022-11-05T05:10:08.963Z,21.71
2022-11-05T05:11:08.980Z,21.71
2022-11-05T05:12:09.012Z,21.71
2022-11-05T05:13:09.333Z,21.73
2022-11-05T05:14:09.148Z,21.71
2022-11-05T05:15:09.050Z,21.73
2022-11-05T05:16:09.085Z,21.73
2022-11-05T05:17:09.104Z,21.74
2022-11-05T05:18:09.125Z,21.74
2022-11-05T05:19:09.138Z,21.73
2022-11-05T05:20:09.168Z,21.71
2022-11-05T05:21:09.170Z,21.73
2022-11-05T05:22:09.191Z,21.74
2022-11-05T05:23:09.440Z,21.74
2022-11-05T05:24:09.236Z,21.74
2022-11-05T05:25:09.250Z,21.77
2022-11-05T05:26:09.275Z,21.75
2022-11-05T05:27:09.304Z,21.74
2022-11-05T05:28:09.318Z,21.75
2022-11-05T05:29:09.340Z,21.79
2022-11-05T05:30:09.400Z,21.77
2022-11-05T05:31:09.360Z,21.77
2022-11-05T05:32:09.378Z,21.77
2022-11-05T05:33:09.734Z,21.77
2022-11-05T05:34:09.412Z,21.79
2022-11-05T05:35:09.452Z,21.77
2022-11-05T05:36:11.435Z,21.79
2022-11-05T05:37:09.454Z,21.79
2022-11-05T05:38:09.470Z,21.79
2022-11-05T05:39:09.496Z,21.79
2022-11-05T05:40:09.505Z,21.81
2022-11-05T05:41:09.535Z,21.81
2022-11-05T05:42:09.506Z,21.81
2022-11-05T05:43:09.952Z,21.82
2022-11-05T05:44:09.530Z,21.81
2022-11-05T05:45:09.558Z,21.79
2022-11-05T05:46:09.609Z,21.79
2022-11-05T05:47:09.607Z,21.77
2022-11-05T05:48:09.603Z,21.81
2022-11-05T05:49:12.514Z,21.79
2022-11-05T05:50:09.610Z,21.79
2022-11-05T05:51:09.633Z,21.79
2022-11-05T05:52:09.603Z,21.81
2022-11-05T05:53:10.058Z,21.81
2022-11-05T05:54:09.582Z,21.81
2022-11-05T05:55:09.585Z,21.77
2022-11-05T05:56:09.609Z,21.81
2022-11-05T05:57:09.646Z,21.79
2022-11-05T05:58:09.624Z,21.81
2022-11-05T05:59:09.647Z,21.79
2022-11-05T06:00:09.670Z,21.77
2022-11-05T06:01:14.132Z,21.79
2022-11-05T06:02:09.871Z,21.75
2022-11-05T06:03:10.165Z,21.77
2022-11-05T06:04:09.711Z,21.77
2022-11-05T06:05:09.712Z,21.75
2022-11-05T06:06:09.742Z,21.77
2022-11-05T06:07:09.749Z,21.77
2022-11-05T06:08:09.776Z,21.77
2022-11-05T06:09:09.787Z,21.74
2022-11-05T06:10:09.809Z,21.74
2022-11-05T06:11:10.022Z,21.75
2022-11-05T06:12:09.837Z,21.74
2022-11-05T06:13:10.189Z,21.74
2022-11-05T06:14:09.840Z,21.74
2022-11-05T06:15:09.863Z,21.73
2022-11-05T06:16:09.914Z,21.73
2022-11-05T06:17:09.897Z,21.73
2022-11-05T06:18:09.970Z,21.74
2022-11-05T06:19:09.922Z,21.71
2022-11-05T06:20:09.947Z,21.71
2022-11-05T06:21:10.015Z,21.73
2022-11-05T06:22:09.965Z,21.70
2022-11-05T06:23:10.293Z,21.71
2022-11-05T06:24:09.947Z,21.71
2022-11-05T06:25:09.948Z,21.70
2022-11-05T06:26:09.956Z,21.73
2022-11-05T06:27:09.954Z,21.71
2022-11-05T06:28:09.957Z,21.71
2022-11-05T06:29:09.973Z,21.70
2022-11-05T06:30:09.984Z,21.71
2022-11-05T06:31:10.029Z,21.73
2022-11-05T06:32:09.993Z,21.71
2022-11-05T06:33:10.526Z,21.70
2022-11-05T06:34:10.034Z,21.71
2022-11-05T06:35:10.034Z,21.70
2022-11-05T06:36:10.049Z,21.68
2022-11-05T06:37:10.041Z,21.70
2022-11-05T06:38:10.061Z,21.71
2022-11-05T06:39:10.070Z,21.70
2022-11-05T06:40:10.096Z,21.70
2022-11-05T06:41:10.856Z,21.70
2022-11-05T06:42:19.040Z,21.68
2022-11-05T06:43:10.488Z,21.68
2022-11-05T06:44:10.138Z,21.68
2022-11-05T06:45:10.127Z,21.70
2022-11-05T06:46:10.144Z,21.68
2022-11-05T06:47:10.164Z,21.67
2022-11-05T06:48:10.186Z,21.67
2022-11-05T06:49:10.205Z,21.68
2022-11-05T06:50:10.368Z,21.67
2022-11-05T06:51:10.235Z,21.67
2022-11-05T06:52:10.259Z,21.67
2022-11-05T06:53:10.474Z,21.67
2022-11-05T06:54:10.266Z,21.66
2022-11-05T06:55:10.281Z,21.66
2022-11-05T06:56:10.291Z,21.67
2022-11-05T06:57:10.296Z,21.67
2022-11-05T06:58:10.311Z,21.64
2022-11-05T06:59:10.310Z,21.66
2022-11-05T07:00:10.339Z,21.66
2022-11-05T07:01:10.462Z,21.64
2022-11-05T07:02:10.566Z,21.64
2022-11-05T07:03:10.788Z,21.63
2022-11-05T07:04:10.438Z,21.61
2022-11-05T07:05:10.457Z,21.61
2022-11-05T07:06:10.528Z,21.61
2022-11-05T07:07:10.485Z,21.63
2022-11-05T07:08:10.493Z,21.61
2022-11-05T07:09:10.519Z,21.61
2022-11-05T07:10:10.546Z,21.59
2022-11-05T07:11:10.553Z,21.59
2022-11-05T07:12:10.577Z,21.58
2022-11-05T07:13:11.139Z,21.58
2022-11-05T07:14:10.625Z,21.56
2022-11-05T07:15:10.645Z,21.56
2022-11-05T07:16:10.676Z,21.56
2022-11-05T07:17:10.707Z,21.55
2022-11-05T07:18:10.719Z,21.55
2022-11-05T07:19:10.744Z,21.55
2022-11-05T07:20:10.757Z,21.53
2022-11-05T07:21:10.765Z,21.56
2022-11-05T07:22:10.805Z,21.56
2022-11-05T07:23:11.185Z,21.55
2022-11-05T07:24:10.837Z,21.55
2022-11-05T07:25:10.871Z,21.56
2022-11-05T07:26:10.873Z,21.53
2022-11-05T07:27:10.888Z,21.53
2022-11-05T07:28:10.901Z,21.55
2022-11-05T07:29:10.901Z,21.53
2022-11-05T07:30:10.911Z,21.53
2022-11-05T07:31:10.940Z,21.53
2022-11-05T07:32:10.961Z,21.52
2022-11-05T07:33:11.300Z,21.51
2022-11-05T07:34:10.945Z,21.51
2022-11-05T07:35:10.949Z,21.51
2022-11-05T07:36:10.962Z,21.51
2022-11-05T07:37:10.976Z,21.49
2022-11-05T07:38:11.081Z,21.49
2022-11-05T07:39:10.985Z,21.49
2022-11-05T07:40:11.012Z,21.49
2022-11-05T07:41:11.040Z,21.49
2022-11-05T07:42:11.044Z,21.49
2022-11-05T07:43:11.320Z,21.48
2022-11-05T07:44:11.048Z,21.46
2022-11-05T07:45:11.061Z,21.48
2022-11-05T07:46:13.826Z,21.46
2022-11-05T07:47:11.098Z,21.46
2022-11-05T07:48:11.124Z,21.45
2022-11-05T07:49:11.137Z,21.45
2022-11-05T07:50:11.130Z,21.46
2022-11-05T07:51:11.149Z,21.45
2022-11-05T07:52:11.166Z,21.45
2022-11-05T07:53:11.683Z,21.43
2022-11-05T07:54:11.223Z,21.43
2022-11-05T07:55:11.227Z,21.42
2022-11-05T07:56:11.230Z,21.42
2022-11-05T07:57:11.239Z,21.42
2022-11-05T07:58:11.247Z,21.42
2022-11-05T07:59:11.260Z,21.42
2022-11-05T08:00:11.262Z,21.40
2022-11-05T08:01:11.450Z,21.38
2022-11-05T08:02:11.632Z,21.38
2022-11-05T08:03:11.839Z,21.38
2022-11-05T08:04:11.297Z,21.38
2022-11-05T08:05:11.301Z,21.40
2022-11-05T08:06:11.365Z,21.37
2022-11-05T08:07:11.349Z,21.36
2022-11-05T08:08:11.310Z,21.34
2022-11-05T08:09:11.338Z,21.36
2022-11-05T08:10:11.376Z,21.37
2022-11-05T08:11:11.386Z,21.36
2022-11-05T08:12:11.424Z,21.36
2022-11-05T08:13:11.971Z,21.37
2022-11-05T08:14:11.460Z,21.37
2022-11-05T08:15:11.477Z,21.36
2022-11-05T08:16:11.486Z,21.34
2022-11-05T08:17:15.926Z,21.34
2022-11-05T08:18:11.480Z,21.34
2022-11-05T08:19:11.487Z,21.34
2022-11-05T08:20:11.478Z,21.36
2022-11-05T08:21:11.482Z,21.34
2022-11-05T08:22:11.504Z,21.34
2022-11-05T08:23:11.984Z,21.34
2022-11-05T08:24:11.506Z,21.34
2022-11-05T08:25:11.509Z,21.34
2022-11-05T08:26:11.548Z,21.34
2022-11-05T08:27:11.554Z,21.36
2022-11-05T08:28:11.598Z,21.34
2022-11-05T08:29:11.575Z,21.34
2022-11-05T08:30:11.607Z,21.34
2022-11-05T08:31:11.877Z,21.34
2022-11-05T08:32:11.652Z,21.36
2022-11-05T08:33:12.203Z,21.36
2022-11-05T08:34:11.690Z,21.37
2022-11-05T08:35:11.723Z,21.36
2022-11-05T08:36:11.767Z,21.37
2022-11-05T08:37:11.786Z,21.36
2022-11-05T08:38:11.800Z,21.37
2022-11-05T08:39:16.792Z,21.38
2022-11-05T08:40:11.793Z,21.38
2022-11-05T08:41:11.834Z,21.37
2022-11-05T08:42:11.884Z,21.37
2022-11-05T08:43:12.239Z,21.37
2022-11-05T08:44:11.905Z,21.37
2022-11-05T08:45:11.870Z,21.37
2022-11-05T08:46:11.898Z,21.38
2022-11-05T08:47:11.918Z,21.38
2022-11-05T08:48:11.945Z,21.36
2022-11-05T08:49:11.991Z,21.36
2022-11-05T08:50:11.981Z,21.37
2022-11-05T08:51:11.998Z,21.38
2022-11-05T08:52:12.026Z,21.38
2022-11-05T08:53:12.367Z,21.40
2022-11-05T08:54:12.053Z,21.42
2022-11-05T08:55:12.044Z,21.42
2022-11-05T08:56:12.075Z,21.42
2022-11-05T08:57:12.098Z,21.42
2022-11-05T08:58:12.167Z,21.40
2022-11-05T08:59:12.137Z,21.40
2022-11-05T09:00:12.156Z,21.43
2022-11-05T09:01:12.177Z,21.43
2022-11-05T09:02:12.376Z,21.45
2022-11-05T09:03:12.425Z,21.48
2022-11-05T09:04:12.171Z,21.46
2022-11-05T09:05:12.131Z,21.48
2022-11-05T09:06:12.184Z,21.45
2022-11-05T09:07:12.152Z,21.49
2022-11-05T09:08:12.193Z,21.49
2022-11-05T09:09:12.174Z,21.48
2022-11-05T09:10:12.213Z,21.48
2022-11-05T09:11:12.236Z,21.51
2022-11-05T09:12:13.231Z,21.49
2022-11-05T09:13:18.195Z,21.49
2022-11-05T09:14:12.293Z,21.49
2022-11-05T09:15:12.308Z,21.51
2022-11-05T09:16:12.322Z,21.48
2022-11-05T09:17:12.340Z,21.49
2022-11-05T09:18:12.643Z,21.51
2022-11-05T09:19:12.348Z,21.51
2022-11-05T09:20:12.382Z,21.51
2022-11-05T09:21:12.357Z,21.51
2022-11-05T09:22:12.383Z,21.52
2022-11-05T09:23:12.841Z,21.52
2022-11-05T09:24:12.446Z,21.51
2022-11-05T09:25:12.423Z,21.52
2022-11-05T09:26:12.441Z,21.52
2022-11-05T09:27:12.465Z,21.53
2022-11-05T09:28:16.398Z,21.52
2022-11-05T09:29:14.557Z,21.53
2022-11-05T09:30:12.546Z,21.53
2022-11-05T09:31:12.513Z,21.53
2022-11-05T09:32:12.536Z,21.55
2022-11-05T09:33:12.889Z,21.55
2022-11-05T09:34:12.557Z,21.56
2022-11-05T09:35:12.567Z,21.56
2022-11-05T09:36:12.548Z,21.55
2022-11-05T09:37:12.556Z,21.56
2022-11-05T09:38:12.600Z,21.55
2022-11-05T09:39:12.613Z,21.59
2022-11-05T09:40:12.680Z,21.58
2022-11-05T09:41:12.630Z,21.58
2022-11-05T09:42:12.624Z,21.58
2022-11-05T09:43:13.057Z,21.58
2022-11-05T09:44:12.673Z,21.56
2022-11-05T09:45:12.715Z,21.55
2022-11-05T09:46:12.757Z,21.58
2022-11-05T09:47:12.720Z,21.56
2022-11-05T09:48:12.757Z,21.55
2022-11-05T09:49:12.785Z,21.52
2022-11-05T09:50:12.911Z,21.52
2022-11-05T09:51:12.796Z,21.52
2022-11-05T09:52:12.823Z,21.51
2022-11-05T09:53:13.189Z,21.51
2022-11-05T09:54:12.866Z,21.49
2022-11-05T09:55:12.884Z,21.45
2022-11-05T09:56:12.899Z,21.43
2022-11-05T09:57:12.901Z,21.43
2022-11-05T09:58:12.907Z,21.40
2022-11-05T09:59:12.918Z,21.40
2022-11-05T10:00:12.915Z,21.40
2022-11-05T10:01:13.004Z,21.38
2022-11-05T10:02:13.108Z,21.37
2022-11-05T10:03:13.462Z,21.38
2022-11-05T10:04:12.994Z,21.37
2022-11-05T10:05:13.081Z,21.36
2022-11-05T10:06:13.056Z,21.34
2022-11-05T10:07:13.080Z,21.33
2022-11-05T10:08:13.121Z,21.34
2022-11-05T10:09:13.106Z,21.34
2022-11-05T10:10:13.122Z,21.34
2022-11-05T10:11:13.137Z,21.31
2022-11-05T10:12:13.149Z,21.30
2022-11-05T10:13:13.495Z,21.28
2022-11-05T10:14:13.187Z,21.30
2022-11-05T10:15:13.215Z,21.28
2022-11-05T10:16:13.239Z,21.28
2022-11-05T10:17:13.211Z,21.27
2022-11-05T10:18:13.267Z,21.27
2022-11-05T10:19:13.276Z,21.24
2022-11-05T10:20:13.284Z,21.24
2022-11-05T10:21:13.311Z,21.26
2022-11-05T10:22:13.268Z,21.26
2022-11-05T10:23:13.672Z,21.24
2022-11-05T10:24:13.275Z,21.24
2022-11-05T10:25:13.308Z,21.24
2022-11-05T10:26:13.327Z,21.22
2022-11-05T10:27:13.369Z,21.24
2022-11-05T10:28:13.346Z,21.22
2022-11-05T10:29:13.364Z,21.22
2022-11-05T10:30:13.386Z,21.24
2022-11-05T10:31:13.421Z,21.24
2022-11-05T10:32:13.400Z,21.26
2022-11-05T10:33:13.737Z,21.24
2022-11-05T10:34:13.487Z,21.22
2022-11-05T10:35:13.450Z,21.24
2022-11-05T10:36:13.481Z,21.22
2022-11-05T10:37:13.498Z,21.21
2022-11-05T10:38:13.507Z,21.21
2022-11-05T10:39:13.521Z,21.22
2022-11-05T10:40:13.555Z,21.24
2022-11-05T10:41:13.567Z,21.26
2022-11-05T10:42:13.585Z,21.27
2022-11-05T10:43:14.022Z,21.27
2022-11-05T10:44:18.625Z,21.27
2022-11-05T10:45:13.600Z,21.27
2022-11-05T10:46:13.578Z,21.27
2022-11-05T10:47:13.561Z,21.26
2022-11-05T10:48:13.605Z,21.26
2022-11-05T10:49:13.611Z,21.28
2022-11-05T10:50:13.754Z,21.27
2022-11-05T10:51:13.621Z,21.27
2022-11-05T10:52:13.630Z,21.26
2022-11-05T10:53:14.032Z,21.26
2022-11-05T10:54:13.647Z,21.24
2022-11-05T10:55:13.650Z,21.22
2022-11-05T10:56:13.663Z,21.24
2022-11-05T10:57:13.693Z,21.26
2022-11-05T10:58:13.678Z,21.27
2022-11-05T10:59:13.711Z,21.27
2022-11-05T11:00:13.725Z,21.31
2022-11-05T11:01:13.810Z,21.37
2022-11-05T11:02:13.785Z,21.38
2022-11-05T11:03:14.045Z,21.43
2022-11-05T11:04:13.746Z,21.45
2022-11-05T11:05:13.809Z,21.49
2022-11-05T11:06:13.806Z,21.51
2022-11-05T11:07:13.787Z,21.52
2022-11-05T11:08:13.816Z,21.49
2022-11-05T11:09:13.840Z,21.48
2022-11-05T11:10:13.839Z,21.46
2022-11-05T11:11:13.888Z,21.43
2022-11-05T11:12:13.902Z,21.45
2022-11-05T11:13:14.088Z,21.46
2022-11-05T11:14:13.931Z,21.43
2022-11-05T11:15:13.899Z,21.43
2022-11-05T11:16:13.947Z,21.42
2022-11-05T11:17:13.927Z,21.37
2022-11-05T11:18:13.969Z,21.40
2022-11-05T11:19:13.979Z,21.40
2022-11-05T11:20:13.963Z,21.37
2022-11-05T11:21:13.991Z,21.36
2022-11-05T11:22:14.097Z,21.36
2022-11-05T11:23:14.586Z,21.34
2022-11-05T11:24:13.992Z,21.34
2022-11-05T11:25:13.973Z,21.36
2022-11-05T11:26:13.988Z,21.40
2022-11-05T11:27:13.977Z,21.38
2022-11-05T11:28:14.002Z,21.40
2022-11-05T11:29:13.989Z,21.38
2022-11-05T11:30:14.008Z,21.40
2022-11-05T11:31:14.012Z,21.40
2022-11-05T11:32:13.990Z,21.40
2022-11-05T11:33:14.362Z,21.43
2022-11-05T11:34:13.991Z,21.45
2022-11-05T11:35:14.018Z,21.46
2022-11-05T11:36:14.027Z,21.46
2022-11-05T11:37:19.190Z,21.48
2022-11-05T11:38:14.173Z,21.48
2022-11-05T11:39:14.071Z,21.48
2022-11-05T11:40:14.069Z,21.48
2022-11-05T11:41:14.112Z,21.48
2022-11-05T11:42:14.096Z,21.49
2022-11-05T11:43:14.311Z,21.49
2022-11-05T11:44:14.133Z,21.52
2022-11-05T11:45:14.127Z,21.55
2022-11-05T11:46:15.208Z,21.58
2022-11-05T11:47:14.157Z,21.58
2022-11-05T11:48:14.180Z,21.59
2022-11-05T11:49:14.223Z,21.55
2022-11-05T11:50:14.201Z,21.53
2022-11-05T11:51:14.221Z,21.53
2022-11-05T11:52:14.228Z,21.55
2022-11-05T11:53:14.332Z,21.55
2022-11-05T11:54:14.344Z,21.55
2022-11-05T11:55:14.265Z,21.53
2022-11-05T11:56:14.281Z,21.53
2022-11-05T11:57:15.283Z,21.51
2022-11-05T11:58:14.271Z,21.51
2022-11-05T11:59:14.309Z,21.51
2022-11-05T12:00:14.321Z,21.52
2022-11-05T12:01:14.355Z,21.49
2022-11-05T12:02:14.479Z,21.49
2022-11-05T12:03:14.956Z,21.46
2022-11-05T12:04:14.423Z,21.45
2022-11-05T12:05:14.407Z,21.48
2022-11-05T12:06:14.447Z,21.51
2022-11-05T12:07:14.470Z,21.53
2022-11-05T12:08:14.453Z,21.56
2022-11-05T12:09:14.484Z,21.59
2022-11-05T12:10:14.601Z,21.64
2022-11-05T12:11:14.507Z,21.70
2022-11-05T12:12:14.519Z,21.74
2022-11-05T12:13:14.560Z,21.79
2022-11-05T12:14:14.516Z,21.86
2022-11-05T12:15:14.527Z,21.90
2022-11-05T12:16:14.544Z,21.91
2022-11-05T12:17:14.571Z,21.93
2022-11-05T12:18:14.570Z,21.98
2022-11-05T12:19:14.604Z,21.99
2022-11-05T12:20:14.738Z,22.01
2022-11-05T12:21:14.633Z,22.04
2022-11-05T12:22:14.662Z,22.06
2022-11-05T12:23:14.995Z,22.05
2022-11-05T12:24:14.672Z,22.09
2022-11-05T12:25:14.692Z,22.11
2022-11-05T12:26:14.735Z,22.14
2022-11-05T12:27:14.727Z,22.17
2022-11-05T12:28:14.714Z,22.20
2022-11-05T12:29:19.366Z,22.21
2022-11-05T12:30:14.733Z,22.24
2022-11-05T12:31:14.761Z,22.27
2022-11-05T12:32:14.816Z,22.29
2022-11-05T12:33:15.371Z,22.33
2022-11-05T12:34:14.810Z,22.35
2022-11-05T12:35:14.836Z,22.38
2022-11-05T12:36:14.850Z,22.41
2022-11-05T12:37:14.872Z,22.44
2022-11-05T12:38:14.885Z,22.46
2022-11-05T12:39:14.916Z,22.51
2022-11-05T12:40:14.924Z,22.52
2022-11-05T12:41:14.961Z,22.57
2022-11-05T12:42:14.998Z,22.59
2022-11-05T12:43:15.270Z,22.61
2022-11-05T12:44:14.995Z,22.63
2022-11-05T12:45:15.010Z,22.66
2022-11-05T12:46:15.026Z,22.66
2022-11-05T12:47:15.052Z,22.70
2022-11-05T12:48:15.090Z,22.72
2022-11-05T12:49:15.104Z,22.75
2022-11-05T12:50:15.109Z,22.76
2022-11-05T12:51:15.151Z,22.81
2022-11-05T12:52:15.160Z,22.81